sensor_id;sensor_type;location;lat;lon;timestamp;pressure;altitude;pressure_sealevel;temperature;humidity
30897;BME280;64229;52.246;21.054;2023-04-08T00:00:32;101124.81;;;5.34;84.52
30897;BME280;64229;52.246;21.054;2023-04-08T00:02:58;101144.78;;;5.30;84.61
30897;BME280;64229;52.246;21.054;2023-04-08T00:05:23;101137.66;;;5.30;84.41
30897;BME280;64229;52.246;21.054;2023-04-08T00:07:48;101144.38;;;5.33;84.11
30897;BME280;64229;52.246;21.054;2023-04-08T00:10:14;101145.38;;;5.38;84.00
30897;BME280;64229;52.246;21.054;2023-04-08T00:12:39;101141.28;;;5.42;83.82
30897;BME280;64229;52.246;21.054;2023-04-08T00:15:05;101142.69;;;5.45;84.17
30897;BME280;64229;52.246;21.054;2023-04-08T00:17:30;101117.13;;;5.19;83.37
30897;BME280;64229;52.246;21.054;2023-04-08T00:19:56;101155.34;;;5.36;83.90
30897;BME280;64229;52.246;21.054;2023-04-08T00:22:21;101147.59;;;5.41;83.98
30897;BME280;64229;52.246;21.054;2023-04-08T00:24:47;101144.91;;;5.48;83.16
30897;BME280;64229;52.246;21.054;2023-04-08T00:27:12;101143.31;;;5.40;83.83
30897;BME280;64229;52.246;21.054;2023-04-08T00:29:37;101141.47;;;5.47;83.95
30897;BME280;64229;52.246;21.054;2023-04-08T00:32:03;101144.69;;;5.56;83.44
30897;BME280;64229;52.246;21.054;2023-04-08T00:34:28;101145.72;;;5.48;83.38
30897;BME280;64229;52.246;21.054;2023-04-08T00:36:54;101148.59;;;5.47;83.24
30897;BME280;64229;52.246;21.054;2023-04-08T00:39:20;101145.34;;;5.45;83.66
30897;BME280;64229;52.246;21.054;2023-04-08T00:41:45;101132.72;;;5.40;83.29
30897;BME280;64229;52.246;21.054;2023-04-08T00:44:11;101148.38;;;5.48;83.34
30897;BME280;64229;52.246;21.054;2023-04-08T00:46:38;101139.63;;;5.41;83.52
30897;BME280;64229;52.246;21.054;2023-04-08T00:49:04;101150.44;;;5.46;83.80
30897;BME280;64229;52.246;21.054;2023-04-08T00:51:31;101162.84;;;5.46;83.22
30897;BME280;64229;52.246;21.054;2023-04-08T00:53:57;101148.00;;;5.45;83.56
30897;BME280;64229;52.246;21.054;2023-04-08T00:56:23;101162.81;;;5.52;83.59
30897;BME280;64229;52.246;21.054;2023-04-08T00:58:49;101165.94;;;5.36;83.07
30897;BME280;64229;52.246;21.054;2023-04-08T01:01:25;101155.78;;;5.33;83.40
30897;BME280;64229;52.246;21.054;2023-04-08T01:06:58;101162.69;;;5.34;83.09
30897;BME280;64229;52.246;21.054;2023-04-08T01:09:29;101137.91;;;5.09;82.96
30897;BME280;64229;52.246;21.054;2023-04-08T01:11:58;101177.22;;;5.12;83.23
30897;BME280;64229;52.246;21.054;2023-04-08T01:14:27;101155.25;;;4.98;83.68
30897;BME280;64229;52.246;21.054;2023-04-08T01:16:57;101175.56;;;5.17;83.98
30897;BME280;64229;52.246;21.054;2023-04-08T01:19:33;101170.69;;;5.21;83.61
30897;BME280;64229;52.246;21.054;2023-04-08T01:24:42;101182.69;;;5.10;84.01
30897;BME280;64229;52.246;21.054;2023-04-08T01:27:09;101179.88;;;5.05;84.45
30897;BME280;64229;52.246;21.054;2023-04-08T01:29:36;101171.50;;;5.08;84.16
30897;BME280;64229;52.246;21.054;2023-04-08T01:32:02;101181.69;;;4.98;84.03
30897;BME280;64229;52.246;21.054;2023-04-08T01:34:28;101170.72;;;4.88;83.94
30897;BME280;64229;52.246;21.054;2023-04-08T01:36:55;101176.00;;;4.88;83.64
30897;BME280;64229;52.246;21.054;2023-04-08T01:39:22;101169.50;;;4.84;83.52
30897;BME280;64229;52.246;21.054;2023-04-08T01:41:52;101167.69;;;4.78;83.63
30897;BME280;64229;52.246;21.054;2023-04-08T01:44:19;101165.44;;;4.75;83.81
30897;BME280;64229;52.246;21.054;2023-04-08T01:46:46;101164.44;;;4.69;84.14
30897;BME280;64229;52.246;21.054;2023-04-08T01:49:12;101169.31;;;4.72;84.23
30897;BME280;64229;52.246;21.054;2023-04-08T01:51:39;101167.69;;;4.64;84.60
30897;BME280;64229;52.246;21.054;2023-04-08T01:54:05;101176.47;;;4.58;84.43
30897;BME280;64229;52.246;21.054;2023-04-08T01:56:32;101174.00;;;4.57;84.49
30897;BME280;64229;52.246;21.054;2023-04-08T01:59:00;101189.84;;;4.77;84.19
30897;BME280;64229;52.246;21.054;2023-04-08T02:01:31;101192.72;;;4.82;83.80
30897;BME280;64229;52.246;21.054;2023-04-08T02:03:59;101188.44;;;4.81;84.33
30897;BME280;64229;52.246;21.054;2023-04-08T02:06:27;101194.16;;;4.71;84.97
30897;BME280;64229;52.246;21.054;2023-04-08T02:08:54;101201.03;;;4.65;85.07
30897;BME280;64229;52.246;21.054;2023-04-08T02:11:20;101194.75;;;4.67;85.69
30897;BME280;64229;52.246;21.054;2023-04-08T02:13:45;101197.59;;;4.78;84.90
30897;BME280;64229;52.246;21.054;2023-04-08T02:16:30;101201.88;;;4.73;85.08
30897;BME280;64229;52.246;21.054;2023-04-08T02:19:01;101203.50;;;4.74;85.45
30897;BME280;64229;52.246;21.054;2023-04-08T02:21:36;101197.19;;;4.61;85.50
30897;BME280;64229;52.246;21.054;2023-04-08T02:24:04;101209.00;;;4.72;85.52
30897;BME280;64229;52.246;21.054;2023-04-08T02:26:33;101204.94;;;4.70;85.57
30897;BME280;64229;52.246;21.054;2023-04-08T02:29:01;101209.38;;;4.76;85.67
30897;BME280;64229;52.246;21.054;2023-04-08T02:31:28;101208.78;;;4.74;85.86
30897;BME280;64229;52.246;21.054;2023-04-08T02:33:54;101201.03;;;4.65;85.89
30897;BME280;64229;52.246;21.054;2023-04-08T02:36:21;101200.22;;;4.65;86.06
30897;BME280;64229;52.246;21.054;2023-04-08T02:38:47;101183.75;;;4.56;86.04
30897;BME280;64229;52.246;21.054;2023-04-08T02:41:14;101216.53;;;4.69;86.18
30897;BME280;64229;52.246;21.054;2023-04-08T02:43:40;101221.81;;;4.69;85.60
30897;BME280;64229;52.246;21.054;2023-04-08T02:46:05;101220.78;;;4.70;85.76
30897;BME280;64229;52.246;21.054;2023-04-08T02:48:31;101225.88;;;4.71;85.67
30897;BME280;64229;52.246;21.054;2023-04-08T02:50:57;101225.66;;;4.59;86.02
30897;BME280;64229;52.246;21.054;2023-04-08T02:53:23;101232.97;;;4.64;86.13
30897;BME280;64229;52.246;21.054;2023-04-08T02:55:48;101229.34;;;4.58;86.59
30897;BME280;64229;52.246;21.054;2023-04-08T02:58:14;101236.66;;;4.63;86.08
30897;BME280;64229;52.246;21.054;2023-04-08T03:00:39;101234.41;;;4.67;86.37
30897;BME280;64229;52.246;21.054;2023-04-08T03:03:05;101247.03;;;4.71;85.95
30897;BME280;64229;52.246;21.054;2023-04-08T03:05:31;101245.81;;;4.74;84.63
30897;BME280;64229;52.246;21.054;2023-04-08T03:07:56;101254.34;;;4.62;85.39
30897;BME280;64229;52.246;21.054;2023-04-08T03:10:22;101254.34;;;4.62;85.64
30897;BME280;64229;52.246;21.054;2023-04-08T03:12:47;101249.84;;;4.56;85.79
30897;BME280;64229;52.246;21.054;2023-04-08T03:15:12;101257.16;;;4.54;86.12
30897;BME280;64229;52.246;21.054;2023-04-08T03:17:38;101251.50;;;4.57;84.93
30897;BME280;64229;52.246;21.054;2023-04-08T03:20:03;101251.91;;;4.48;85.48
30897;BME280;64229;52.246;21.054;2023-04-08T03:22:30;101258.78;;;4.42;85.73
30897;BME280;64229;52.246;21.054;2023-04-08T03:24:55;101254.31;;;4.36;86.56
30897;BME280;64229;52.246;21.054;2023-04-08T03:27:20;101259.16;;;4.32;86.90
30897;BME280;64229;52.246;21.054;2023-04-08T03:29:46;101262.66;;;4.40;86.03
30897;BME280;64229;52.246;21.054;2023-04-08T03:32:12;101265.69;;;4.43;85.87
30897;BME280;64229;52.246;21.054;2023-04-08T03:34:37;101266.31;;;4.39;85.52
30897;BME280;64229;52.246;21.054;2023-04-08T03:37:02;101272.78;;;4.29;86.59
30897;BME280;64229;52.246;21.054;2023-04-08T03:39:28;101262.34;;;4.15;87.29
30897;BME280;64229;52.246;21.054;2023-04-08T03:41:53;101263.78;;;4.11;87.26
30897;BME280;64229;52.246;21.054;2023-04-08T03:44:18;101262.75;;;4.12;87.65
30897;BME280;64229;52.246;21.054;2023-04-08T03:46:43;101272.50;;;4.11;86.97
30897;BME280;64229;52.246;21.054;2023-04-08T03:49:09;101257.66;;;4.03;86.92
30897;BME280;64229;52.246;21.054;2023-04-08T03:51:34;101275.75;;;4.06;87.36
30897;BME280;64229;52.246;21.054;2023-04-08T03:54:00;101278.81;;;4.10;87.03
30897;BME280;64229;52.246;21.054;2023-04-08T03:56:25;101261.50;;;3.94;87.39
30897;BME280;64229;52.246;21.054;2023-04-08T03:58:50;101274.50;;;3.96;88.07
30897;BME280;64229;52.246;21.054;2023-04-08T04:01:16;101264.25;;;3.80;88.37
30897;BME280;64229;52.246;21.054;2023-04-08T04:03:41;101282.84;;;3.99;87.74
30897;BME280;64229;52.246;21.054;2023-04-08T04:06:06;101282.03;;;3.99;87.17
30897;BME280;64229;52.246;21.054;2023-04-08T04:08:32;101292.19;;;3.95;87.67
30897;BME280;64229;52.246;21.054;2023-04-08T04:10:58;101289.91;;;3.92;87.78
30897;BME280;64229;52.246;21.054;2023-04-08T04:13:23;101290.94;;;3.91;87.47
30897;BME280;64229;52.246;21.054;2023-04-08T04:15:49;101296.59;;;3.88;88.30
30897;BME280;64229;52.246;21.054;2023-04-08T04:18:14;101297.81;;;3.86;87.56
30897;BME280;64229;52.246;21.054;2023-04-08T04:20:43;101296.38;;;3.83;87.80
30897;BME280;64229;52.246;21.054;2023-04-08T04:23:08;101304.28;;;3.76;87.81
30897;BME280;64229;52.246;21.054;2023-04-08T04:25:34;101298.53;;;3.66;88.75
30897;BME280;64229;52.246;21.054;2023-04-08T04:27:59;101300.69;;;3.56;89.80
30897;BME280;64229;52.246;21.054;2023-04-08T04:30:26;101309.47;;;3.63;89.87
30897;BME280;64229;52.246;21.054;2023-04-08T04:32:51;101313.16;;;3.69;89.37
30897;BME280;64229;52.246;21.054;2023-04-08T04:35:17;101312.53;;;3.67;89.15
30897;BME280;64229;52.246;21.054;2023-04-08T04:37:42;101320.31;;;3.75;88.62
30897;BME280;64229;52.246;21.054;2023-04-08T04:40:08;101318.69;;;3.74;88.40
30897;BME280;64229;52.246;21.054;2023-04-08T04:42:33;101318.22;;;3.70;88.85
30897;BME280;64229;52.246;21.054;2023-04-08T04:44:58;101312.72;;;3.65;88.71
30897;BME280;64229;52.246;21.054;2023-04-08T04:47:24;101331.22;;;3.65;89.32
30897;BME280;64229;52.246;21.054;2023-04-08T04:49:50;101326.75;;;3.66;89.32
30897;BME280;64229;52.246;21.054;2023-04-08T04:52:16;101331.75;;;3.54;89.58
30897;BME280;64229;52.246;21.054;2023-04-08T04:54:41;101333.47;;;3.68;89.12
30897;BME280;64229;52.246;21.054;2023-04-08T04:57:06;101333.25;;;3.70;89.27
30897;BME280;64229;52.246;21.054;2023-04-08T04:59:32;101321.81;;;3.56;89.12
30897;BME280;64229;52.246;21.054;2023-04-08T05:01:57;101334.28;;;3.69;89.67
30897;BME280;64229;52.246;21.054;2023-04-08T05:04:23;101342.25;;;3.75;88.95
30897;BME280;64229;52.246;21.054;2023-04-08T05:06:49;101345.56;;;3.84;88.24
30897;BME280;64229;52.246;21.054;2023-04-08T05:09:14;101324.38;;;3.77;88.55
30897;BME280;64229;52.246;21.054;2023-04-08T05:11:40;101342.94;;;3.91;88.86
30897;BME280;64229;52.246;21.054;2023-04-08T05:14:05;101347.66;;;3.95;88.90
30897;BME280;64229;52.246;21.054;2023-04-08T05:16:31;101347.66;;;3.95;89.23
30897;BME280;64229;52.246;21.054;2023-04-08T05:18:57;101349.63;;;3.87;88.34
30897;BME280;64229;52.246;21.054;2023-04-08T05:21:22;101344.19;;;3.95;88.64
30897;BME280;64229;52.246;21.054;2023-04-08T05:23:48;101358.03;;;4.03;88.46
30897;BME280;64229;52.246;21.054;2023-04-08T05:26:15;101341.75;;;4.00;88.33
30897;BME280;64229;52.246;21.054;2023-04-08T05:28:40;101356.66;;;4.14;88.45
30897;BME280;64229;52.246;21.054;2023-04-08T05:31:05;101350.97;;;4.11;87.86
30897;BME280;64229;52.246;21.054;2023-04-08T05:33:31;101358.16;;;4.30;87.28
30897;BME280;64229;52.246;21.054;2023-04-08T05:35:56;101356.53;;;4.29;87.39
30897;BME280;64229;52.246;21.054;2023-04-08T05:38:21;101355.56;;;4.43;86.45
30897;BME280;64229;52.246;21.054;2023-04-08T05:40:47;101352.72;;;4.45;86.53
30897;BME280;64229;52.246;21.054;2023-04-08T05:43:12;101349.66;;;4.41;87.45
30897;BME280;64229;52.246;21.054;2023-04-08T05:45:37;101358.22;;;4.43;87.59
30897;BME280;64229;52.246;21.054;2023-04-08T05:48:03;101358.00;;;4.45;87.58
30897;BME280;64229;52.246;21.054;2023-04-08T05:50:28;101359.72;;;4.59;87.00
30897;BME280;64229;52.246;21.054;2023-04-08T05:52:53;101365.59;;;4.68;86.84
30897;BME280;64229;52.246;21.054;2023-04-08T05:55:19;101371.34;;;4.71;86.85
30897;BME280;64229;52.246;21.054;2023-04-08T05:57:44;101371.75;;;4.81;85.98
30897;BME280;64229;52.246;21.054;2023-04-08T06:00:10;101374.59;;;4.86;86.42
30897;BME280;64229;52.246;21.054;2023-04-08T06:02:36;101376.25;;;4.94;86.18
30897;BME280;64229;52.246;21.054;2023-04-08T06:05:02;101371.59;;;5.03;85.80
30897;BME280;64229;52.246;21.054;2023-04-08T06:07:31;101379.97;;;5.13;85.47
30897;BME280;64229;52.246;21.054;2023-04-08T06:09:56;101380.78;;;5.27;84.37
30897;BME280;64229;52.246;21.054;2023-04-08T06:12:22;101362.66;;;5.37;82.07
30897;BME280;64229;52.246;21.054;2023-04-08T06:14:47;101374.47;;;5.41;83.02
30897;BME280;64229;52.246;21.054;2023-04-08T06:17:12;101375.69;;;5.51;82.68
30897;BME280;64229;52.246;21.054;2023-04-08T06:19:38;101380.38;;;5.56;83.32
30897;BME280;64229;52.246;21.054;2023-04-08T06:22:03;101381.38;;;5.62;82.84
30897;BME280;64229;52.246;21.054;2023-04-08T06:24:28;101377.69;;;5.63;83.52
30897;BME280;64229;52.246;21.054;2023-04-08T06:26:55;101380.34;;;5.76;81.42
30897;BME280;64229;52.246;21.054;2023-04-08T06:29:21;101375.25;;;5.94;80.92
30897;BME280;64229;52.246;21.054;2023-04-08T06:31:47;101380.97;;;5.98;81.46
30897;BME280;64229;52.246;21.054;2023-04-08T06:34:13;101385.19;;;6.05;81.26
30897;BME280;64229;52.246;21.054;2023-04-08T06:36:38;101387.63;;;6.14;80.86
30897;BME280;64229;52.246;21.054;2023-04-08T06:39:03;101384.53;;;6.30;80.23
30897;BME280;64229;52.246;21.054;2023-04-08T06:41:29;101385.34;;;6.30;79.72
30897;BME280;64229;52.246;21.054;2023-04-08T06:43:55;101389.78;;;6.36;79.88
30897;BME280;64229;52.246;21.054;2023-04-08T06:46:20;101389.19;;;6.41;79.15
30897;BME280;64229;52.246;21.054;2023-04-08T06:48:45;101397.06;;;6.54;79.23
30897;BME280;64229;52.246;21.054;2023-04-08T06:51:11;101393.78;;;6.59;79.32
30897;BME280;64229;52.246;21.054;2023-04-08T06:53:36;101400.44;;;6.81;75.81
30897;BME280;64229;52.246;21.054;2023-04-08T06:56:02;101390.66;;;6.75;73.51
30897;BME280;64229;52.246;21.054;2023-04-08T06:58:27;101389.25;;;6.66;74.10
30897;BME280;64229;52.246;21.054;2023-04-08T07:00:54;101395.84;;;6.57;74.47
30897;BME280;64229;52.246;21.054;2023-04-08T07:03:22;101403.09;;;6.75;74.85
30897;BME280;64229;52.246;21.054;2023-04-08T07:05:47;101394.81;;;6.96;73.74
30897;BME280;64229;52.246;21.054;2023-04-08T07:08:13;101398.19;;;7.10;72.97
30897;BME280;64229;52.246;21.054;2023-04-08T07:10:38;101395.88;;;7.20;73.50
30897;BME280;64229;52.246;21.054;2023-04-08T07:13:04;101373.13;;;7.06;74.38
30897;BME280;64229;52.246;21.054;2023-04-08T07:15:29;101399.53;;;7.25;73.91
30897;BME280;64229;52.246;21.054;2023-04-08T07:17:55;101397.31;;;7.47;71.38
30897;BME280;64229;52.246;21.054;2023-04-08T07:20:21;101400.34;;;7.51;72.67
30897;BME280;64229;52.246;21.054;2023-04-08T07:22:47;101402.50;;;7.61;73.29
30897;BME280;64229;52.246;21.054;2023-04-08T07:25:12;101412.75;;;7.82;72.26
30897;BME280;64229;52.246;21.054;2023-04-08T07:27:38;101402.38;;;7.99;69.07
30897;BME280;64229;52.246;21.054;2023-04-08T07:30:03;101408.81;;;8.09;68.95
30897;BME280;64229;52.246;21.054;2023-04-08T07:32:29;101402.44;;;8.10;68.50
30897;BME280;64229;52.246;21.054;2023-04-08T07:34:54;101402.34;;;8.17;69.10
30897;BME280;64229;52.246;21.054;2023-04-08T07:37:20;101402.88;;;8.26;69.80
30897;BME280;64229;52.246;21.054;2023-04-08T07:39:45;101413.56;;;8.44;69.04
30897;BME280;64229;52.246;21.054;2023-04-08T07:42:11;101412.28;;;8.47;69.24
30897;BME280;64229;52.246;21.054;2023-04-08T07:44:36;101403.50;;;8.46;69.52
30897;BME280;64229;52.246;21.054;2023-04-08T07:47:02;101413.53;;;8.62;69.19
30897;BME280;64229;52.246;21.054;2023-04-08T07:49:27;101413.44;;;8.69;69.41
30897;BME280;64229;52.246;21.054;2023-04-08T07:51:53;101419.16;;;8.73;68.86
30897;BME280;64229;52.246;21.054;2023-04-08T07:54:18;101410.59;;;8.82;69.99
30897;BME280;64229;52.246;21.054;2023-04-08T07:56:44;101403.13;;;8.91;68.75
30897;BME280;64229;52.246;21.054;2023-04-08T07:59:10;101414.56;;;9.21;66.76
30897;BME280;64229;52.246;21.054;2023-04-08T08:01:36;101414.69;;;9.26;66.90
30897;BME280;64229;52.246;21.054;2023-04-08T08:04:03;101418.31;;;9.44;66.57
30897;BME280;64229;52.246;21.054;2023-04-08T08:06:28;101411.59;;;9.65;64.22
30897;BME280;64229;52.246;21.054;2023-04-08T08:08:56;101419.13;;;9.56;64.54
30897;BME280;64229;52.246;21.054;2023-04-08T08:11:22;101419.25;;;9.61;65.37
30897;BME280;64229;52.246;21.054;2023-04-08T08:13:47;101395.84;;;9.40;64.06
30897;BME280;64229;52.246;21.054;2023-04-08T08:16:13;101416.25;;;9.57;65.02
30897;BME280;64229;52.246;21.054;2023-04-08T08:18:39;101411.59;;;9.53;65.43
30897;BME280;64229;52.246;21.054;2023-04-08T08:21:05;101409.75;;;9.77;64.27
30897;BME280;64229;52.246;21.054;2023-04-08T08:23:30;101411.63;;;10.00;63.46
30897;BME280;64229;52.246;21.054;2023-04-08T08:26:04;101418.34;;;10.26;62.11
30897;BME280;64229;52.246;21.054;2023-04-08T08:28:31;101417.16;;;10.45;62.75
30897;BME280;64229;52.246;21.054;2023-04-08T08:30:57;101406.31;;;12.53;59.01
30897;BME280;64229;52.246;21.054;2023-04-08T08:33:23;101417.72;;;15.75;49.89
30897;BME280;64229;52.246;21.054;2023-04-08T08:35:48;101413.31;;;18.53;44.60
30897;BME280;64229;52.246;21.054;2023-04-08T08:38:14;101413.16;;;19.85;36.64
30897;BME280;64229;52.246;21.054;2023-04-08T08:40:42;101416.34;;;21.50;31.53
30897;BME280;64229;52.246;21.054;2023-04-08T08:43:08;101414.81;;;21.98;30.25
30897;BME280;64229;52.246;21.054;2023-04-08T08:45:38;101411.25;;;23.75;28.76
30897;BME280;64229;52.246;21.054;2023-04-08T08:48:04;101399.66;;;25.75;25.74
30897;BME280;64229;52.246;21.054;2023-04-08T08:50:30;101406.44;;;26.94;24.48
30897;BME280;64229;52.246;21.054;2023-04-08T08:52:55;101408.94;;;28.38;23.15
30897;BME280;64229;52.246;21.054;2023-04-08T08:55:20;101408.28;;;28.99;22.25
30897;BME280;64229;52.246;21.054;2023-04-08T08:57:49;101412.84;;;29.53;20.08
30897;BME280;64229;52.246;21.054;2023-04-08T09:00:15;101407.88;;;29.85;20.57
30897;BME280;64229;52.246;21.054;2023-04-08T09:02:41;101409.97;;;30.44;18.48
30897;BME280;64229;52.246;21.054;2023-04-08T09:05:07;101405.16;;;24.08;24.71
30897;BME280;64229;52.246;21.054;2023-04-08T09:07:36;101404.78;;;25.88;22.97
30897;BME280;64229;52.246;21.054;2023-04-08T09:10:05;101398.69;;;26.56;21.76
30897;BME280;64229;52.246;21.054;2023-04-08T09:12:30;101403.34;;;25.58;23.58
30897;BME280;64229;52.246;21.054;2023-04-08T09:15:06;101410.44;;;26.32;23.06
30897;BME280;64229;52.246;21.054;2023-04-08T09:17:37;101408.38;;;27.22;21.44
30897;BME280;64229;52.246;21.054;2023-04-08T09:20:10;101409.75;;;26.47;22.48
30897;BME280;64229;52.246;21.054;2023-04-08T09:22:57;101403.00;;;27.69;21.36
30897;BME280;64229;52.246;21.054;2023-04-08T09:25:25;101412.16;;;28.78;19.59
30897;BME280;64229;52.246;21.054;2023-04-08T09:27:51;101412.38;;;29.28;19.46
30897;BME280;64229;52.246;21.054;2023-04-08T09:30:19;101411.75;;;29.15;19.32
30897;BME280;64229;52.246;21.054;2023-04-08T09:32:52;101417.31;;;29.19;19.16
30897;BME280;64229;52.246;21.054;2023-04-08T09:35:18;101410.75;;;29.46;19.09
30897;BME280;64229;52.246;21.054;2023-04-08T09:37:44;101411.06;;;29.64;18.85
30897;BME280;64229;52.246;21.054;2023-04-08T09:40:11;101414.97;;;29.86;18.67
30897;BME280;64229;52.246;21.054;2023-04-08T09:42:39;101411.78;;;29.84;18.62
30897;BME280;64229;52.246;21.054;2023-04-08T09:45:09;101409.25;;;28.01;19.86
30897;BME280;64229;52.246;21.054;2023-04-08T09:47:56;101404.78;;;26.77;21.56
30897;BME280;64229;52.246;21.054;2023-04-08T09:50:27;101404.22;;;27.00;21.37
30897;BME280;64229;52.246;21.054;2023-04-08T09:53:12;101403.19;;;26.76;21.37
30897;BME280;64229;52.246;21.054;2023-04-08T09:55:42;101403.78;;;26.70;22.11
30897;BME280;64229;52.246;21.054;2023-04-08T09:58:14;101400.09;;;25.89;22.57
30897;BME280;64229;52.246;21.054;2023-04-08T10:00:46;101398.84;;;26.11;21.92
30897;BME280;64229;52.246;21.054;2023-04-08T10:05:49;101384.59;;;22.47;26.95
30897;BME280;64229;52.246;21.054;2023-04-08T10:08:17;101389.66;;;22.14;28.19
30897;BME280;64229;52.246;21.054;2023-04-08T10:10:43;101392.53;;;20.66;28.60
30897;BME280;64229;52.246;21.054;2023-04-08T10:13:09;101388.56;;;20.09;30.91
30897;BME280;64229;52.246;21.054;2023-04-08T10:15:35;101384.75;;;18.66;31.94
30897;BME280;64229;52.246;21.054;2023-04-08T10:25:47;101378.22;;;17.18;36.24
30897;BME280;64229;52.246;21.054;2023-04-08T10:30:57;101374.50;;;17.14;36.59
30897;BME280;64229;52.246;21.054;2023-04-08T10:38:33;101348.00;;;14.71;40.25
30897;BME280;64229;52.246;21.054;2023-04-08T10:40:59;101366.03;;;15.17;40.09
30897;BME280;64229;52.246;21.054;2023-04-08T10:43:24;101371.41;;;15.47;39.64
30897;BME280;64229;52.246;21.054;2023-04-08T10:45:52;101370.06;;;15.70;39.74
30897;BME280;64229;52.246;21.054;2023-04-08T10:48:22;101362.50;;;15.72;38.13
30897;BME280;64229;52.246;21.054;2023-04-08T10:50:55;101364.16;;;15.68;37.93
30897;BME280;64229;52.246;21.054;2023-04-08T10:53:34;101364.34;;;15.97;38.93
30897;BME280;64229;52.246;21.054;2023-04-08T10:56:07;101358.63;;;16.14;37.52
30897;BME280;64229;52.246;21.054;2023-04-08T10:58:32;101359.72;;;16.08;36.94
30897;BME280;64229;52.246;21.054;2023-04-08T11:01:03;101348.72;;;15.94;37.73
30897;BME280;64229;52.246;21.054;2023-04-08T11:03:31;101362.00;;;15.65;37.62
30897;BME280;64229;52.246;21.054;2023-04-08T11:05:58;101334.00;;;15.51;37.60
30897;BME280;64229;52.246;21.054;2023-04-08T11:08:36;101358.22;;;15.56;38.16
30897;BME280;64229;52.246;21.054;2023-04-08T11:11:03;101348.25;;;15.72;37.92
30897;BME280;64229;52.246;21.054;2023-04-08T11:13:40;101348.03;;;15.38;38.47
30897;BME280;64229;52.246;21.054;2023-04-08T11:16:08;101350.16;;;15.51;38.46
30897;BME280;64229;52.246;21.054;2023-04-08T11:18:36;101353.94;;;15.45;38.43
30897;BME280;64229;52.246;21.054;2023-04-08T11:21:03;101356.88;;;15.53;38.10
30897;BME280;64229;52.246;21.054;2023-04-08T11:23:28;101346.94;;;15.39;38.34
30897;BME280;64229;52.246;21.054;2023-04-08T11:25:54;101355.56;;;15.20;38.83
30897;BME280;64229;52.246;21.054;2023-04-08T11:28:21;101328.94;;;15.09;39.24
30897;BME280;64229;52.246;21.054;2023-04-08T11:30:46;101339.16;;;15.17;39.05
30897;BME280;64229;52.246;21.054;2023-04-08T11:33:12;101346.44;;;15.01;39.09
30897;BME280;64229;52.246;21.054;2023-04-08T11:35:42;101346.97;;;15.03;39.43
30897;BME280;64229;52.246;21.054;2023-04-08T11:38:09;101342.38;;;15.09;38.05
30897;BME280;64229;52.246;21.054;2023-04-08T11:40:34;101347.75;;;14.68;38.74
30897;BME280;64229;52.246;21.054;2023-04-08T11:43:10;101340.66;;;13.79;40.70
30897;BME280;64229;52.246;21.054;2023-04-08T11:45:40;101333.97;;;13.81;40.09
30897;BME280;64229;52.246;21.054;2023-04-08T11:48:13;101338.22;;;13.30;41.25
30897;BME280;64229;52.246;21.054;2023-04-08T11:50:39;101334.75;;;13.77;40.84
30897;BME280;64229;52.246;21.054;2023-04-08T11:55:41;101337.00;;;14.78;39.64
30897;BME280;64229;52.246;21.054;2023-04-08T11:58:07;101324.91;;;14.91;39.76
30897;BME280;64229;52.246;21.054;2023-04-08T12:00:32;101325.16;;;15.10;39.19
30897;BME280;64229;52.246;21.054;2023-04-08T12:02:58;101310.66;;;14.85;39.21
30897;BME280;64229;52.246;21.054;2023-04-08T12:05:24;101309.59;;;15.07;39.43
30897;BME280;64229;52.246;21.054;2023-04-08T12:07:50;101304.97;;;15.53;38.65
30897;BME280;64229;52.246;21.054;2023-04-08T12:10:15;101319.94;;;15.89;38.69
30897;BME280;64229;52.246;21.054;2023-04-08T12:12:40;101317.44;;;16.08;37.59
30897;BME280;64229;52.246;21.054;2023-04-08T12:15:06;101305.63;;;15.99;38.05
30897;BME280;64229;52.246;21.054;2023-04-08T12:17:35;101313.19;;;15.97;39.93
30897;BME280;64229;52.246;21.054;2023-04-08T12:20:00;101308.53;;;16.18;37.93
30897;BME280;64229;52.246;21.054;2023-04-08T12:22:26;101315.50;;;16.19;37.55
30897;BME280;64229;52.246;21.054;2023-04-08T12:24:51;101318.03;;;16.00;37.46
30897;BME280;64229;52.246;21.054;2023-04-08T12:27:17;101312.91;;;15.99;37.63
30897;BME280;64229;52.246;21.054;2023-04-08T12:29:42;101311.50;;;16.11;36.61
30897;BME280;64229;52.246;21.054;2023-04-08T12:32:08;101302.28;;;16.23;37.59
30897;BME280;64229;52.246;21.054;2023-04-08T12:34:33;101309.91;;;16.10;36.70
30897;BME280;64229;52.246;21.054;2023-04-08T12:36:59;101304.78;;;16.04;36.34
30897;BME280;64229;52.246;21.054;2023-04-08T12:39:24;101301.28;;;16.08;35.87
30897;BME280;64229;52.246;21.054;2023-04-08T12:41:50;101299.88;;;16.21;35.31
30897;BME280;64229;52.246;21.054;2023-04-08T12:44:15;101270.72;;;15.79;35.20
30897;BME280;64229;52.246;21.054;2023-04-08T12:46:41;101294.91;;;15.89;35.81
30897;BME280;64229;52.246;21.054;2023-04-08T12:49:06;101290.75;;;16.12;36.30
30897;BME280;64229;52.246;21.054;2023-04-08T12:51:33;101289.41;;;16.14;35.71
30897;BME280;64229;52.246;21.054;2023-04-08T12:54:00;101284.13;;;16.43;35.84
30897;BME280;64229;52.246;21.054;2023-04-08T12:56:26;101277.16;;;16.82;34.98
30897;BME280;64229;52.246;21.054;2023-04-08T12:58:51;101289.22;;;16.50;35.03
30897;BME280;64229;52.246;21.054;2023-04-08T13:01:16;101283.97;;;16.64;35.31
30897;BME280;64229;52.246;21.054;2023-04-08T13:03:41;101285.09;;;16.97;34.59
30897;BME280;64229;52.246;21.054;2023-04-08T13:06:07;101281.91;;;16.90;34.48
30897;BME280;64229;52.246;21.054;2023-04-08T13:08:32;101278.38;;;16.94;34.39